createdAt,value
2019-04-29T00:00:27.683Z,14.40
2019-04-29T00:05:33.237Z,14.60
2019-04-29T00:10:38.886Z,14.60
2019-04-29T00:16:15.543Z,14.50
2019-04-29T00:21:21.647Z,14.50
2019-04-29T00:26:27.067Z,14.40
2019-04-29T00:31:32.609Z,14.30
2019-04-29T00:36:44.803Z,14.30
2019-04-29T00:42:15.173Z,14.40
2019-04-29T00:47:21.031Z,14.40
2019-04-29T00:52:26.624Z,14.40
2019-04-29T00:57:32.035Z,14.40
2019-04-29T01:02:37.567Z,14.40
2019-04-29T01:07:43.073Z,14.40
2019-04-29T01:12:48.499Z,14.40
2019-04-29T01:17:53.927Z,14.40
2019-04-29T01:22:59.329Z,14.30
2019-04-29T01:28:14.847Z,14.30
2019-04-29T01:33:20.417Z,14.20
2019-04-29T01:38:25.994Z,14.20
2019-04-29T01:43:59.191Z,14.20
2019-04-29T01:49:04.865Z,14.20
2019-04-29T01:54:10.281Z,14.20
2019-04-29T01:59:15.762Z,14.30
2019-04-29T02:04:21.151Z,14.20
2019-04-29T02:09:34.611Z,14.20
2019-04-29T02:14:39.990Z,14.20
2019-04-29T02:19:45.544Z,14.20
2019-04-29T02:24:55.788Z,14.20
2019-04-29T02:30:01.336Z,14.20
2019-04-29T02:35:06.962Z,14.20
2019-04-29T02:40:28.797Z,14.20
2019-04-29T02:45:35.512Z,14.10
2019-04-29T02:50:41.012Z,14.10
2019-04-29T02:55:50.485Z,14.10
2019-04-29T03:01:14.895Z,14.20
2019-04-29T03:06:20.523Z,14.10
2019-04-29T03:11:26.333Z,14.30
2019-04-29T03:16:31.844Z,14.20
2019-04-29T03:21:50.056Z,14.20
2019-04-29T03:26:55.507Z,14.20
2019-04-29T03:32:00.866Z,14.10
2019-04-29T03:37:06.301Z,14.10
2019-04-29T03:42:11.876Z,14.20
2019-04-29T03:47:19.045Z,14.20
2019-04-29T03:52:24.451Z,14.20
2019-04-29T03:57:31.893Z,14.30
2019-04-29T04:02:53.838Z,14.20
2019-04-29T04:08:03.852Z,14.30
2019-04-29T04:13:09.629Z,14.30
2019-04-29T04:18:22.773Z,14.30
2019-04-29T04:23:28.282Z,14.30
2019-04-29T04:28:33.701Z,14.20
2019-04-29T04:33:39.220Z,14.20
2019-04-29T04:38:44.660Z,14.30
2019-04-29T04:43:50.054Z,14.20
2019-04-29T04:48:55.511Z,14.30
2019-04-29T04:54:00.896Z,14.30
2019-04-29T04:59:06.300Z,14.40
2019-04-29T05:04:11.686Z,14.40
2019-04-29T05:09:17.077Z,14.40
2019-04-29T05:14:22.534Z,14.40
2019-04-29T05:19:28.040Z,14.50
2019-04-29T05:24:33.441Z,14.40
2019-04-29T05:29:38.944Z,14.50
2019-04-29T05:34:48.147Z,14.70
2019-04-29T05:39:53.727Z,14.60
2019-04-29T05:45:09.067Z,14.70
2019-04-29T05:50:42.739Z,14.70
2019-04-29T05:55:48.332Z,14.70
2019-04-29T06:01:00.298Z,14.80
2019-04-29T06:06:05.712Z,14.90
2019-04-29T06:11:11.199Z,15.00
2019-04-29T06:16:20.982Z,14.90
2019-04-29T06:21:23.711Z,15.00
2019-04-29T06:26:29.459Z,15.00
2019-04-29T06:31:38.429Z,15.10
2019-04-29T06:36:43.803Z,15.20
2019-04-29T06:41:49.229Z,15.30
2019-04-29T06:46:56.266Z,15.40
2019-04-29T06:52:01.781Z,15.30
2019-04-29T06:57:07.189Z,15.20
2019-04-29T07:02:14.452Z,15.40
2019-04-29T07:07:19.701Z,15.50
2019-04-29T07:12:25.096Z,15.50
2019-04-29T07:17:30.549Z,15.60
2019-04-29T07:22:36.103Z,15.60
2019-04-29T07:27:44.194Z,15.60
2019-04-29T07:32:48.961Z,15.70
2019-04-29T07:37:54.579Z,15.60
2019-04-29T07:43:02.796Z,15.70
2019-04-29T07:48:07.749Z,15.70
2019-04-29T07:53:13.592Z,16.20
2019-04-29T07:58:22.946Z,16.20
2019-04-29T08:03:28.519Z,16.30
2019-04-29T08:08:34.930Z,16.40
2019-04-29T08:13:42.454Z,16.60
2019-04-29T08:18:49.441Z,16.20
2019-04-29T08:23:55.077Z,16.00
2019-04-29T08:29:01.647Z,16.50
2019-04-29T08:34:07.224Z,16.70
2019-04-29T08:39:12.651Z,16.70
2019-04-29T08:44:35.732Z,17.00
2019-04-29T08:49:41.350Z,17.20
2019-04-29T08:54:50.766Z,17.40
2019-04-29T08:59:53.782Z,17.50
2019-04-29T09:04:59.273Z,17.60
2019-04-29T09:10:05.115Z,17.60
2019-04-29T09:15:11.120Z,17.40
2019-04-29T09:20:16.763Z,17.30
2019-04-29T09:25:40.995Z,16.90
2019-04-29T09:30:47.248Z,16.90
2019-04-29T09:35:52.828Z,16.90
2019-04-29T09:41:07.356Z,17.00
2019-04-29T09:46:20.409Z,17.40
2019-04-29T09:51:27.956Z,17.60
2019-04-29T09:56:34.641Z,17.20
2019-04-29T10:02:04.984Z,17.30
2019-04-29T10:07:11.658Z,17.20
2019-04-29T10:12:17.082Z,17.00
2019-04-29T10:17:41.468Z,17.10
2019-04-29T10:22:50.178Z,17.10
2019-04-29T10:27:54.162Z,17.40
2019-04-29T10:32:59.582Z,17.50
2019-04-29T10:38:05.910Z,17.80
2019-04-29T10:43:17.264Z,18.20
2019-04-29T10:48:29.975Z,18.60
2019-04-29T10:53:35.935Z,18.80
2019-04-29T10:58:41.384Z,19.00
2019-04-29T11:03:47.257Z,19.10
2019-04-29T11:09:01.551Z,19.30
2019-04-29T11:14:07.522Z,19.70
2019-04-29T11:19:13.207Z,20.00
2019-04-29T11:24:37.391Z,19.90
2019-04-29T11:29:42.836Z,19.90
2019-04-29T11:35:00.985Z,19.90
2019-04-29T11:40:06.747Z,20.30
2019-04-29T11:45:13.753Z,19.70
2019-04-29T11:50:45.189Z,19.40
2019-04-29T11:55:52.443Z,19.60
2019-04-29T12:01:10.920Z,20.10
2019-04-29T12:06:20.897Z,20.80
2019-04-29T12:11:28.751Z,21.60
2019-04-29T12:16:54.847Z,22.60
2019-04-29T12:22:04.929Z,22.40
2019-04-29T12:27:10.107Z,22.80
2019-04-29T12:32:43.745Z,22.70
2019-04-29T12:38:11.035Z,22.40
2019-04-29T12:43:40.372Z,23.10
2019-04-29T12:48:46.061Z,21.90
2019-04-29T12:53:51.451Z,21.60
2019-04-29T12:58:59.600Z,21.10
2019-04-29T13:04:14.826Z,19.80
2019-04-29T13:09:31.153Z,20.40
2019-04-29T13:14:39.249Z,20.70
2019-04-29T13:20:01.502Z,20.70
2019-04-29T13:25:00.309Z,21.80
2019-04-29T13:30:15.183Z,22.80
2019-04-29T13:35:16.102Z,22.50
2019-04-29T13:40:21.980Z,22.50
2019-04-29T13:45:34.833Z,22.80
2019-04-29T13:50:47.226Z,23.60
2019-04-29T13:56:11.343Z,24.40
2019-04-29T14:01:23.815Z,25.50
2019-04-29T14:06:25.358Z,25.60
2019-04-29T14:11:30.925Z,26.20
2019-04-29T14:16:36.734Z,26.20
2019-04-29T14:21:43.660Z,26.50
2019-04-29T14:26:49.147Z,25.70
2019-04-29T14:32:01.220Z,25.80
2019-04-29T14:37:25.285Z,26.20
2019-04-29T14:42:31.925Z,26.70
2019-04-29T14:47:48.135Z,24.50
2019-04-29T14:52:53.554Z,24.60
2019-04-29T14:57:58.954Z,24.30
2019-04-29T15:03:04.607Z,24.70
2019-04-29T15:08:10.145Z,24.60
2019-04-29T15:13:21.381Z,24.10
2019-04-29T15:18:46.154Z,23.80
2019-04-29T15:23:36.620Z,23.70
2019-04-29T15:28:54.680Z,24.10
2019-04-29T15:34:00.291Z,24.00
2019-04-29T15:39:11.700Z,23.90
2019-04-29T15:44:20.390Z,24.20
2019-04-29T15:49:24.714Z,23.20
2019-04-29T15:54:30.669Z,23.50
2019-04-29T15:59:48.727Z,24.40
2019-04-29T16:04:48.743Z,24.30
2019-04-29T16:10:14.516Z,22.90
2019-04-29T16:15:21.106Z,22.90
2019-04-29T16:20:26.698Z,23.90
2019-04-29T16:25:32.188Z,24.80
2019-04-29T16:30:37.783Z,24.30
2019-04-29T16:35:43.293Z,24.00
2019-04-29T16:40:57.274Z,23.90
2019-04-29T16:46:15.179Z,23.60
2019-04-29T16:51:20.681Z,23.50
2019-04-29T16:56:26.123Z,23.60
2019-04-29T17:01:31.944Z,23.70
2019-04-29T17:06:41.949Z,23.30
2019-04-29T17:11:50.398Z,22.90
2019-04-29T17:16:52.647Z,22.00
2019-04-29T17:22:24.290Z,20.70
2019-04-29T17:27:35.004Z,19.80
2019-04-29T17:33:05.719Z,19.50
2019-04-29T17:38:11.423Z,19.40
2019-04-29T17:43:43.035Z,19.60
2019-04-29T17:48:59.948Z,19.60
2019-04-29T17:54:07.244Z,19.60
2019-04-29T17:59:30.827Z,19.60
2019-04-29T18:04:57.301Z,18.90
2019-04-29T18:10:24.503Z,18.10
2019-04-29T18:15:40.198Z,17.80
2019-04-29T18:20:51.115Z,17.50
2019-04-29T18:26:11.063Z,17.20
2019-04-29T18:31:16.534Z,16.90
2019-04-29T18:36:24.833Z,16.80
2019-04-29T18:41:30.279Z,16.70
2019-04-29T18:46:35.702Z,16.50
2019-04-29T18:51:41.109Z,16.30
2019-04-29T18:56:46.549Z,16.30
2019-04-29T19:01:52.087Z,16.00
2019-04-29T19:07:02.287Z,16.10
2019-04-29T19:12:06.440Z,16.00
2019-04-29T19:17:11.877Z,16.30
2019-04-29T19:22:17.269Z,16.30
2019-04-29T19:27:22.785Z,16.30
2019-04-29T19:32:28.210Z,16.20
2019-04-29T19:37:37.609Z,15.90
2019-04-29T19:42:41.030Z,15.90
2019-04-29T19:47:50.768Z,16.30
2019-04-29T19:52:55.470Z,16.30
2019-04-29T19:58:02.827Z,16.20
2019-04-29T20:03:20.328Z,16.40
2019-04-29T20:08:37.647Z,16.10
2019-04-29T20:13:30.369Z,16.20
2019-04-29T20:18:58.811Z,16.20
2019-04-29T20:23:56.320Z,16.20
2019-04-29T20:29:01.886Z,16.30
2019-04-29T20:34:07.787Z,16.30
2019-04-29T20:39:18.323Z,16.30
2019-04-29T20:44:20.692Z,16.30
2019-04-29T20:49:26.560Z,16.30
2019-04-29T20:54:35.511Z,16.20
2019-04-29T20:59:45.986Z,16.30
2019-04-29T21:04:48.448Z,16.20
2019-04-29T21:09:55.909Z,16.10
2019-04-29T21:15:07.401Z,16.20
2019-04-29T21:20:11.524Z,16.00
2019-04-29T21:25:17.145Z,15.90
2019-04-29T21:30:27.235Z,16.00
2019-04-29T21:35:57.924Z,16.00
2019-04-29T21:41:06.772Z,15.90
2019-04-29T21:46:12.305Z,16.20
2019-04-29T21:51:19.515Z,16.40
2019-04-29T21:56:25.778Z,16.40
2019-04-29T22:01:34.317Z,16.40
2019-04-29T22:06:38.647Z,16.40
2019-04-29T22:11:44.692Z,16.40
2019-04-29T22:16:54.334Z,16.40
2019-04-29T22:22:01.482Z,16.50
2019-04-29T22:27:08.177Z,16.50
2019-04-29T22:32:14.651Z,16.40
2019-04-29T22:37:20.852Z,16.50
2019-04-29T22:42:51.469Z,16.60
2019-04-29T22:48:12.152Z,16.70
2019-04-29T22:53:07.372Z,16.70
2019-04-29T22:58:11.664Z,16.80
2019-04-29T23:03:17.139Z,16.80
2019-04-29T23:08:22.641Z,16.70
2019-04-29T23:13:31.174Z,16.50
2019-04-29T23:18:42.166Z,16.60
2019-04-29T23:23:46.375Z,16.50
2019-04-29T23:28:51.851Z,16.60
2019-04-29T23:33:57.276Z,16.50
2019-04-29T23:39:02.689Z,16.60
2019-04-29T23:44:08.916Z,16.30
2019-04-29T23:49:15.439Z,16.60
2019-04-29T23:54:21.002Z,16.40
2019-04-29T23:59:28.090Z,16.40
